sensor_id;sensor_type;location;lat;lon;timestamp;P1;durP1;ratioP1;P2;durP2;ratioP2
3949;SDS011;53057;50.988;6.314;2023-02-17T00:03:40;21.50;;;12.00;;
3949;SDS011;53057;50.988;6.314;2023-02-17T00:06:07;25.67;;;13.30;;
3949;SDS011;53057;50.988;6.314;2023-02-17T00:08:34;28.47;;;16.87;;
3949;SDS011;53057;50.988;6.314;2023-02-17T00:11:01;26.70;;;15.90;;
3949;SDS011;53057;50.988;6.314;2023-02-17T00:13:28;25.23;;;12.90;;
3949;SDS011;53057;50.988;6.314;2023-02-17T00:15:55;24.07;;;14.67;;
3949;SDS011;53057;50.988;6.314;2023-02-17T00:18:21;26.13;;;15.23;;
3949;SDS011;53057;50.988;6.314;2023-02-17T00:20:48;25.07;;;14.80;;
3949;SDS011;53057;50.988;6.314;2023-02-17T00:23:15;25.33;;;15.63;;
3949;SDS011;53057;50.988;6.314;2023-02-17T00:25:42;23.80;;;13.60;;
3949;SDS011;53057;50.988;6.314;2023-02-17T00:28:09;28.93;;;14.57;;
3949;SDS011;53057;50.988;6.314;2023-02-17T00:30:36;22.97;;;15.40;;
3949;SDS011;53057;50.988;6.314;2023-02-17T00:33:02;19.63;;;14.40;;
3949;SDS011;53057;50.988;6.314;2023-02-17T00:35:29;21.60;;;13.40;;
3949;SDS011;53057;50.988;6.314;2023-02-17T00:37:55;24.57;;;13.83;;
3949;SDS011;53057;50.988;6.314;2023-02-17T00:40:22;20.30;;;15.27;;
3949;SDS011;53057;50.988;6.314;2023-02-17T00:42:49;21.47;;;14.83;;
3949;SDS011;53057;50.988;6.314;2023-02-17T00:45:16;15.87;;;12.40;;
3949;SDS011;53057;50.988;6.314;2023-02-17T00:47:43;25.80;;;15.37;;
3949;SDS011;53057;50.988;6.314;2023-02-17T00:50:09;21.70;;;14.33;;
3949;SDS011;53057;50.988;6.314;2023-02-17T00:52:36;20.00;;;13.43;;
3949;SDS011;53057;50.988;6.314;2023-02-17T00:55:03;15.83;;;11.87;;
3949;SDS011;53057;50.988;6.314;2023-02-17T00:57:29;19.13;;;11.70;;
3949;SDS011;53057;50.988;6.314;2023-02-17T00:59:57;16.07;;;12.17;;
3949;SDS011;53057;50.988;6.314;2023-02-17T01:02:25;18.27;;;10.80;;
3949;SDS011;53057;50.988;6.314;2023-02-17T01:04:51;15.80;;;11.67;;
3949;SDS011;53057;50.988;6.314;2023-02-17T01:07:18;15.90;;;11.80;;
3949;SDS011;53057;50.988;6.314;2023-02-17T01:09:45;19.47;;;12.30;;
3949;SDS011;53057;50.988;6.314;2023-02-17T01:12:12;20.60;;;10.90;;
3949;SDS011;53057;50.988;6.314;2023-02-17T01:14:38;21.33;;;12.87;;
3949;SDS011;53057;50.988;6.314;2023-02-17T01:17:05;15.30;;;9.77;;
3949;SDS011;53057;50.988;6.314;2023-02-17T01:19:31;21.03;;;12.53;;
3949;SDS011;53057;50.988;6.314;2023-02-17T01:21:58;18.03;;;10.33;;
3949;SDS011;53057;50.988;6.314;2023-02-17T01:24:25;17.53;;;9.73;;
3949;SDS011;53057;50.988;6.314;2023-02-17T01:26:52;16.27;;;10.93;;
3949;SDS011;53057;50.988;6.314;2023-02-17T01:29:18;17.10;;;12.03;;
3949;SDS011;53057;50.988;6.314;2023-02-17T01:31:45;12.17;;;9.60;;
3949;SDS011;53057;50.988;6.314;2023-02-17T01:34:12;17.90;;;12.47;;
3949;SDS011;53057;50.988;6.314;2023-02-17T01:36:38;17.37;;;11.63;;
3949;SDS011;53057;50.988;6.314;2023-02-17T01:39:05;18.70;;;13.60;;
3949;SDS011;53057;50.988;6.314;2023-02-17T01:41:32;16.00;;;11.20;;
3949;SDS011;53057;50.988;6.314;2023-02-17T01:46:40;20.60;;;11.60;;
3949;SDS011;53057;50.988;6.314;2023-02-17T01:49:50;20.37;;;12.77;;
3949;SDS011;53057;50.988;6.314;2023-02-17T01:52:02;20.20;;;12.40;;
3949;SDS011;53057;50.988;6.314;2023-02-17T01:54:33;17.30;;;12.87;;
3949;SDS011;53057;50.988;6.314;2023-02-17T01:57:00;18.87;;;10.80;;
3949;SDS011;53057;50.988;6.314;2023-02-17T01:59:28;16.40;;;12.60;;
3949;SDS011;53057;50.988;6.314;2023-02-17T02:01:56;19.20;;;12.33;;
3949;SDS011;53057;50.988;6.314;2023-02-17T02:04:25;14.70;;;10.97;;
3949;SDS011;53057;50.988;6.314;2023-02-17T02:06:53;16.07;;;12.03;;
3949;SDS011;53057;50.988;6.314;2023-02-17T02:09:28;16.50;;;11.27;;
3949;SDS011;53057;50.988;6.314;2023-02-17T02:11:56;16.57;;;11.13;;
3949;SDS011;53057;50.988;6.314;2023-02-17T02:14:29;16.43;;;11.83;;
3949;SDS011;53057;50.988;6.314;2023-02-17T02:16:59;15.57;;;13.27;;
3949;SDS011;53057;50.988;6.314;2023-02-17T02:24:58;15.63;;;12.03;;
3949;SDS011;53057;50.988;6.314;2023-02-17T02:35:43;14.10;;;11.60;;
3949;SDS011;53057;50.988;6.314;2023-02-17T02:38:19;20.13;;;12.17;;
3949;SDS011;53057;50.988;6.314;2023-02-17T02:40:49;12.73;;;10.63;;
3949;SDS011;53057;50.988;6.314;2023-02-17T02:43:24;16.60;;;12.30;;
3949;SDS011;53057;50.988;6.314;2023-02-17T02:45:51;19.40;;;12.70;;
3949;SDS011;53057;50.988;6.314;2023-02-17T02:48:18;20.80;;;13.10;;
3949;SDS011;53057;50.988;6.314;2023-02-17T02:53:22;18.40;;;12.70;;
3949;SDS011;53057;50.988;6.314;2023-02-17T03:00:58;16.83;;;12.00;;
3949;SDS011;53057;50.988;6.314;2023-02-17T03:08:34;17.47;;;12.70;;
3949;SDS011;53057;50.988;6.314;2023-02-17T03:11:02;19.43;;;13.70;;
3949;SDS011;53057;50.988;6.314;2023-02-17T03:13:33;15.00;;;10.90;;
3949;SDS011;53057;50.988;6.314;2023-02-17T03:16:06;14.40;;;10.87;;
3949;SDS011;53057;50.988;6.314;2023-02-17T03:18:34;18.27;;;12.43;;
3949;SDS011;53057;50.988;6.314;2023-02-17T03:21:05;17.80;;;12.30;;
3949;SDS011;53057;50.988;6.314;2023-02-17T03:23:33;14.13;;;11.00;;
3949;SDS011;53057;50.988;6.314;2023-02-17T03:26:00;14.20;;;12.40;;
3949;SDS011;53057;50.988;6.314;2023-02-17T03:28:27;12.73;;;10.47;;
3949;SDS011;53057;50.988;6.314;2023-02-17T03:30:55;16.50;;;12.20;;
3949;SDS011;53057;50.988;6.314;2023-02-17T03:33:22;17.37;;;13.20;;
3949;SDS011;53057;50.988;6.314;2023-02-17T03:35:50;15.30;;;12.57;;
3949;SDS011;53057;50.988;6.314;2023-02-17T03:38:17;15.07;;;11.60;;
3949;SDS011;53057;50.988;6.314;2023-02-17T03:40:44;15.30;;;11.47;;
3949;SDS011;53057;50.988;6.314;2023-02-17T03:43:10;14.43;;;11.30;;
3949;SDS011;53057;50.988;6.314;2023-02-17T03:45:37;15.10;;;10.00;;
3949;SDS011;53057;50.988;6.314;2023-02-17T03:48:04;13.37;;;11.63;;
3949;SDS011;53057;50.988;6.314;2023-02-17T03:50:30;14.80;;;11.30;;
3949;SDS011;53057;50.988;6.314;2023-02-17T03:52:57;14.73;;;10.70;;
3949;SDS011;53057;50.988;6.314;2023-02-17T03:55:24;12.57;;;10.13;;
3949;SDS011;53057;50.988;6.314;2023-02-17T03:57:50;16.17;;;11.43;;
3949;SDS011;53057;50.988;6.314;2023-02-17T04:00:17;13.97;;;11.90;;
3949;SDS011;53057;50.988;6.314;2023-02-17T04:02:44;16.20;;;12.43;;
3949;SDS011;53057;50.988;6.314;2023-02-17T04:05:11;17.10;;;12.50;;
3949;SDS011;53057;50.988;6.314;2023-02-17T04:07:37;16.47;;;11.17;;
3949;SDS011;53057;50.988;6.314;2023-02-17T04:10:04;15.87;;;11.93;;
3949;SDS011;53057;50.988;6.314;2023-02-17T04:12:34;21.63;;;11.77;;
3949;SDS011;53057;50.988;6.314;2023-02-17T04:15:01;11.90;;;10.10;;
3949;SDS011;53057;50.988;6.314;2023-02-17T04:17:27;17.23;;;10.00;;
3949;SDS011;53057;50.988;6.314;2023-02-17T04:19:54;14.73;;;9.70;;
3949;SDS011;53057;50.988;6.314;2023-02-17T04:22:21;16.30;;;12.07;;
3949;SDS011;53057;50.988;6.314;2023-02-17T04:24:47;13.40;;;11.70;;
3949;SDS011;53057;50.988;6.314;2023-02-17T04:27:14;11.47;;;10.20;;
3949;SDS011;53057;50.988;6.314;2023-02-17T04:29:41;14.90;;;12.77;;
3949;SDS011;53057;50.988;6.314;2023-02-17T04:32:07;12.83;;;10.57;;
3949;SDS011;53057;50.988;6.314;2023-02-17T04:34:34;23.43;;;12.53;;
3949;SDS011;53057;50.988;6.314;2023-02-17T04:37:00;16.83;;;11.60;;
3949;SDS011;53057;50.988;6.314;2023-02-17T04:39:27;16.30;;;11.90;;
3949;SDS011;53057;50.988;6.314;2023-02-17T04:41:53;12.17;;;10.73;;
3949;SDS011;53057;50.988;6.314;2023-02-17T04:44:20;14.03;;;11.97;;
3949;SDS011;53057;50.988;6.314;2023-02-17T04:46:47;15.30;;;10.67;;
3949;SDS011;53057;50.988;6.314;2023-02-17T04:49:13;15.43;;;11.00;;
3949;SDS011;53057;50.988;6.314;2023-02-17T04:51:40;14.40;;;11.70;;
3949;SDS011;53057;50.988;6.314;2023-02-17T04:54:06;11.57;;;8.73;;
3949;SDS011;53057;50.988;6.314;2023-02-17T04:56:33;14.00;;;11.43;;
3949;SDS011;53057;50.988;6.314;2023-02-17T04:58:59;14.20;;;11.10;;
3949;SDS011;53057;50.988;6.314;2023-02-17T05:01:26;16.33;;;11.60;;
3949;SDS011;53057;50.988;6.314;2023-02-17T05:03:53;14.80;;;11.80;;
3949;SDS011;53057;50.988;6.314;2023-02-17T05:06:19;15.67;;;13.47;;
3949;SDS011;53057;50.988;6.314;2023-02-17T05:08:46;18.30;;;11.40;;
3949;SDS011;53057;50.988;6.314;2023-02-17T05:11:13;17.00;;;10.17;;
3949;SDS011;53057;50.988;6.314;2023-02-17T05:13:40;15.53;;;10.90;;
3949;SDS011;53057;50.988;6.314;2023-02-17T05:16:06;13.77;;;10.87;;
3949;SDS011;53057;50.988;6.314;2023-02-17T05:18:33;15.50;;;11.90;;
3949;SDS011;53057;50.988;6.314;2023-02-17T05:21:00;10.87;;;9.70;;
3949;SDS011;53057;50.988;6.314;2023-02-17T05:23:27;12.47;;;10.87;;
3949;SDS011;53057;50.988;6.314;2023-02-17T05:25:53;14.83;;;10.40;;
3949;SDS011;53057;50.988;6.314;2023-02-17T05:28:20;14.77;;;10.40;;
3949;SDS011;53057;50.988;6.314;2023-02-17T05:30:47;14.73;;;10.10;;
3949;SDS011;53057;50.988;6.314;2023-02-17T05:33:14;10.90;;;9.70;;
3949;SDS011;53057;50.988;6.314;2023-02-17T05:35:41;11.33;;;8.20;;
3949;SDS011;53057;50.988;6.314;2023-02-17T05:38:08;12.57;;;10.13;;
3949;SDS011;53057;50.988;6.314;2023-02-17T05:40:34;10.57;;;9.50;;
3949;SDS011;53057;50.988;6.314;2023-02-17T05:43:01;13.20;;;10.20;;
3949;SDS011;53057;50.988;6.314;2023-02-17T05:45:27;10.13;;;9.10;;
3949;SDS011;53057;50.988;6.314;2023-02-17T05:47:54;11.57;;;9.10;;
3949;SDS011;53057;50.988;6.314;2023-02-17T05:50:21;11.37;;;10.13;;
3949;SDS011;53057;50.988;6.314;2023-02-17T05:52:47;15.87;;;9.63;;
3949;SDS011;53057;50.988;6.314;2023-02-17T05:55:14;11.30;;;9.40;;
3949;SDS011;53057;50.988;6.314;2023-02-17T05:57:41;12.90;;;9.17;;
3949;SDS011;53057;50.988;6.314;2023-02-17T06:00:07;13.00;;;9.20;;
3949;SDS011;53057;50.988;6.314;2023-02-17T06:02:40;12.50;;;8.87;;
3949;SDS011;53057;50.988;6.314;2023-02-17T06:05:07;9.93;;;8.60;;
3949;SDS011;53057;50.988;6.314;2023-02-17T06:07:34;14.33;;;9.70;;
3949;SDS011;53057;50.988;6.314;2023-02-17T06:10:00;13.17;;;9.50;;
3949;SDS011;53057;50.988;6.314;2023-02-17T06:12:27;14.57;;;8.67;;
3949;SDS011;53057;50.988;6.314;2023-02-17T06:14:53;11.60;;;8.80;;
3949;SDS011;53057;50.988;6.314;2023-02-17T06:17:20;13.00;;;9.23;;
3949;SDS011;53057;50.988;6.314;2023-02-17T06:19:47;11.07;;;9.43;;
3949;SDS011;53057;50.988;6.314;2023-02-17T06:22:13;16.63;;;10.40;;
3949;SDS011;53057;50.988;6.314;2023-02-17T06:24:43;13.10;;;10.40;;
3949;SDS011;53057;50.988;6.314;2023-02-17T06:27:10;16.53;;;8.07;;
3949;SDS011;53057;50.988;6.314;2023-02-17T06:29:36;12.53;;;9.73;;
3949;SDS011;53057;50.988;6.314;2023-02-17T06:32:03;14.23;;;9.73;;
3949;SDS011;53057;50.988;6.314;2023-02-17T06:34:30;9.67;;;8.50;;
3949;SDS011;53057;50.988;6.314;2023-02-17T06:36:57;11.53;;;10.30;;
3949;SDS011;53057;50.988;6.314;2023-02-17T06:39:23;13.07;;;10.70;;
3949;SDS011;53057;50.988;6.314;2023-02-17T06:41:50;13.27;;;8.90;;
3949;SDS011;53057;50.988;6.314;2023-02-17T06:44:16;10.10;;;8.67;;
3949;SDS011;53057;50.988;6.314;2023-02-17T06:46:43;11.07;;;9.20;;
3949;SDS011;53057;50.988;6.314;2023-02-17T06:49:12;12.63;;;8.67;;
3949;SDS011;53057;50.988;6.314;2023-02-17T06:51:39;10.87;;;8.80;;
3949;SDS011;53057;50.988;6.314;2023-02-17T06:54:07;9.13;;;7.70;;
3949;SDS011;53057;50.988;6.314;2023-02-17T06:56:34;13.90;;;9.37;;
3949;SDS011;53057;50.988;6.314;2023-02-17T06:59:01;13.00;;;9.97;;
3949;SDS011;53057;50.988;6.314;2023-02-17T07:01:28;10.60;;;9.20;;
3949;SDS011;53057;50.988;6.314;2023-02-17T07:03:55;12.73;;;10.23;;
3949;SDS011;53057;50.988;6.314;2023-02-17T07:06:22;15.23;;;11.30;;
3949;SDS011;53057;50.988;6.314;2023-02-17T07:08:49;14.67;;;11.40;;
3949;SDS011;53057;50.988;6.314;2023-02-17T07:11:16;15.50;;;10.77;;
3949;SDS011;53057;50.988;6.314;2023-02-17T07:13:43;14.90;;;10.33;;
3949;SDS011;53057;50.988;6.314;2023-02-17T07:16:10;15.47;;;8.90;;
3949;SDS011;53057;50.988;6.314;2023-02-17T07:18:37;13.73;;;9.37;;
3949;SDS011;53057;50.988;6.314;2023-02-17T07:21:04;18.47;;;11.63;;
3949;SDS011;53057;50.988;6.314;2023-02-17T07:23:31;13.90;;;9.83;;
3949;SDS011;53057;50.988;6.314;2023-02-17T07:26:01;14.97;;;10.87;;
3949;SDS011;53057;50.988;6.314;2023-02-17T07:28:28;11.93;;;8.23;;
3949;SDS011;53057;50.988;6.314;2023-02-17T07:30:55;14.37;;;10.60;;
3949;SDS011;53057;50.988;6.314;2023-02-17T07:33:21;17.30;;;12.87;;
3949;SDS011;53057;50.988;6.314;2023-02-17T07:35:48;16.50;;;10.73;;
3949;SDS011;53057;50.988;6.314;2023-02-17T07:38:14;17.93;;;11.83;;
3949;SDS011;53057;50.988;6.314;2023-02-17T07:40:42;11.80;;;9.83;;
3949;SDS011;53057;50.988;6.314;2023-02-17T07:43:09;20.23;;;11.47;;
3949;SDS011;53057;50.988;6.314;2023-02-17T07:45:35;13.70;;;10.37;;
3949;SDS011;53057;50.988;6.314;2023-02-17T07:48:02;17.07;;;11.27;;
3949;SDS011;53057;50.988;6.314;2023-02-17T07:50:29;12.43;;;10.20;;
3949;SDS011;53057;50.988;6.314;2023-02-17T07:52:55;13.90;;;9.60;;
3949;SDS011;53057;50.988;6.314;2023-02-17T07:55:22;14.37;;;9.93;;
3949;SDS011;53057;50.988;6.314;2023-02-17T07:57:49;15.40;;;9.33;;
3949;SDS011;53057;50.988;6.314;2023-02-17T08:00:16;12.63;;;10.30;;
3949;SDS011;53057;50.988;6.314;2023-02-17T08:02:43;13.93;;;9.67;;
3949;SDS011;53057;50.988;6.314;2023-02-17T08:05:09;14.70;;;10.00;;
3949;SDS011;53057;50.988;6.314;2023-02-17T08:07:36;11.90;;;9.70;;
3949;SDS011;53057;50.988;6.314;2023-02-17T08:10:02;12.30;;;9.90;;
3949;SDS011;53057;50.988;6.314;2023-02-17T08:12:48;11.40;;;7.50;;
3949;SDS011;53057;50.988;6.314;2023-02-17T08:15:33;14.43;;;10.40;;
3949;SDS011;53057;50.988;6.314;2023-02-17T08:18:01;10.73;;;9.43;;
3949;SDS011;53057;50.988;6.314;2023-02-17T08:20:30;12.03;;;8.67;;
3949;SDS011;53057;50.988;6.314;2023-02-17T08:22:59;10.63;;;9.10;;
3949;SDS011;53057;50.988;6.314;2023-02-17T08:25:26;13.47;;;8.53;;
3949;SDS011;53057;50.988;6.314;2023-02-17T08:27:53;13.40;;;9.10;;
3949;SDS011;53057;50.988;6.314;2023-02-17T08:30:20;10.83;;;8.47;;
3949;SDS011;53057;50.988;6.314;2023-02-17T08:32:47;11.53;;;8.50;;
3949;SDS011;53057;50.988;6.314;2023-02-17T08:35:14;12.10;;;8.53;;
3949;SDS011;53057;50.988;6.314;2023-02-17T08:37:40;9.23;;;8.30;;
3949;SDS011;53057;50.988;6.314;2023-02-17T08:40:07;9.97;;;7.50;;
3949;SDS011;53057;50.988;6.314;2023-02-17T08:42:34;9.50;;;7.93;;
3949;SDS011;53057;50.988;6.314;2023-02-17T08:45:02;7.53;;;6.40;;
3949;SDS011;53057;50.988;6.314;2023-02-17T08:47:28;5.53;;;5.00;;
3949;SDS011;53057;50.988;6.314;2023-02-17T08:49:55;9.33;;;7.80;;
3949;SDS011;53057;50.988;6.314;2023-02-17T08:52:21;8.97;;;5.93;;
3949;SDS011;53057;50.988;6.314;2023-02-17T08:54:48;9.97;;;8.03;;
3949;SDS011;53057;50.988;6.314;2023-02-17T08:57:17;9.90;;;8.30;;
3949;SDS011;53057;50.988;6.314;2023-02-17T08:59:44;8.33;;;6.70;;
3949;SDS011;53057;50.988;6.314;2023-02-17T09:02:14;7.97;;;6.33;;
3949;SDS011;53057;50.988;6.314;2023-02-17T09:04:41;12.17;;;6.50;;
3949;SDS011;53057;50.988;6.314;2023-02-17T09:07:10;8.70;;;7.67;;
3949;SDS011;53057;50.988;6.314;2023-02-17T09:09:37;6.53;;;5.13;;
3949;SDS011;53057;50.988;6.314;2023-02-17T09:12:04;7.73;;;6.90;;
3949;SDS011;53057;50.988;6.314;2023-02-17T09:14:31;6.80;;;6.10;;
3949;SDS011;53057;50.988;6.314;2023-02-17T09:16:57;6.70;;;6.10;;
3949;SDS011;53057;50.988;6.314;2023-02-17T09:19:25;8.03;;;5.83;;
3949;SDS011;53057;50.988;6.314;2023-02-17T09:21:51;9.33;;;6.57;;
3949;SDS011;53057;50.988;6.314;2023-02-17T09:24:18;7.93;;;6.20;;
3949;SDS011;53057;50.988;6.314;2023-02-17T09:26:45;8.80;;;7.13;;
3949;SDS011;53057;50.988;6.314;2023-02-17T09:29:11;8.30;;;5.23;;
3949;SDS011;53057;50.988;6.314;2023-02-17T09:31:38;7.20;;;6.50;;
3949;SDS011;53057;50.988;6.314;2023-02-17T09:34:05;13.97;;;6.60;;
3949;SDS011;53057;50.988;6.314;2023-02-17T09:36:33;6.27;;;5.13;;
3949;SDS011;53057;50.988;6.314;2023-02-17T09:39:02;9.10;;;5.60;;
3949;SDS011;53057;50.988;6.314;2023-02-17T09:41:33;5.90;;;5.40;;
3949;SDS011;53057;50.988;6.314;2023-02-17T09:44:12;7.33;;;5.30;;
3949;SDS011;53057;50.988;6.314;2023-02-17T09:46:43;7.80;;;5.70;;
3949;SDS011;53057;50.988;6.314;2023-02-17T09:49:27;4.77;;;4.33;;
3949;SDS011;53057;50.988;6.314;2023-02-17T09:51:57;7.00;;;4.93;;
3949;SDS011;53057;50.988;6.314;2023-02-17T09:54:31;7.33;;;6.20;;
3949;SDS011;53057;50.988;6.314;2023-02-17T09:57:00;6.67;;;6.00;;
3949;SDS011;53057;50.988;6.314;2023-02-17T09:59:30;5.83;;;4.47;;
3949;SDS011;53057;50.988;6.314;2023-02-17T10:01:57;5.10;;;4.50;;
3949;SDS011;53057;50.988;6.314;2023-02-17T10:04:26;10.60;;;4.60;;
3949;SDS011;53057;50.988;6.314;2023-02-17T10:06:58;7.43;;;4.97;;
3949;SDS011;53057;50.988;6.314;2023-02-17T10:11:55;5.10;;;4.57;;
3949;SDS011;53057;50.988;6.314;2023-02-17T10:17:12;4.90;;;4.17;;
3949;SDS011;53057;50.988;6.314;2023-02-17T10:19:46;7.57;;;4.83;;
3949;SDS011;53057;50.988;6.314;2023-02-17T10:22:20;9.63;;;5.80;;
3949;SDS011;53057;50.988;6.314;2023-02-17T10:24:46;9.13;;;5.27;;
3949;SDS011;53057;50.988;6.314;2023-02-17T10:27:26;8.70;;;6.87;;
3949;SDS011;53057;50.988;6.314;2023-02-17T10:32:23;6.60;;;3.97;;
3949;SDS011;53057;50.988;6.314;2023-02-17T10:35:09;8.20;;;4.83;;
3949;SDS011;53057;50.988;6.314;2023-02-17T10:37:45;7.23;;;5.07;;
3949;SDS011;53057;50.988;6.314;2023-02-17T10:40:20;9.40;;;4.63;;
3949;SDS011;53057;50.988;6.314;2023-02-17T10:42:48;5.00;;;4.37;;
3949;SDS011;53057;50.988;6.314;2023-02-17T10:47:43;10.23;;;3.40;;
3949;SDS011;53057;50.988;6.314;2023-02-17T10:50:20;4.10;;;3.30;;
3949;SDS011;53057;50.988;6.314;2023-02-17T10:52:47;6.47;;;4.50;;
3949;SDS011;53057;50.988;6.314;2023-02-17T10:55:35;7.13;;;4.17;;
3949;SDS011;53057;50.988;6.314;2023-02-17T10:58:09;4.90;;;3.97;;
3949;SDS011;53057;50.988;6.314;2023-02-17T11:00:38;6.23;;;3.50;;
3949;SDS011;53057;50.988;6.314;2023-02-17T11:03:17;4.57;;;2.97;;
3949;SDS011;53057;50.988;6.314;2023-02-17T11:05:50;4.47;;;3.87;;
3949;SDS011;53057;50.988;6.314;2023-02-17T11:08:23;4.67;;;3.43;;
3949;SDS011;53057;50.988;6.314;2023-02-17T11:11:25;3.27;;;2.87;;
3949;SDS011;53057;50.988;6.314;2023-02-17T11:14:30;5.60;;;4.00;;
3949;SDS011;53057;50.988;6.314;2023-02-17T11:16:38;6.50;;;3.57;;
3949;SDS011;53057;50.988;6.314;2023-02-17T11:19:06;13.87;;;4.27;;
3949;SDS011;53057;50.988;6.314;2023-02-17T11:21:33;4.17;;;3.53;;
3949;SDS011;53057;50.988;6.314;2023-02-17T11:24:01;5.60;;;3.60;;
3949;SDS011;53057;50.988;6.314;2023-02-17T11:26:31;4.30;;;3.90;;
3949;SDS011;53057;50.988;6.314;2023-02-17T11:31:59;5.40;;;4.20;;
3949;SDS011;53057;50.988;6.314;2023-02-17T11:34:28;4.50;;;3.27;;
3949;SDS011;53057;50.988;6.314;2023-02-17T11:39:53;5.53;;;3.60;;
3949;SDS011;53057;50.988;6.314;2023-02-17T11:42:27;8.93;;;4.60;;
3949;SDS011;53057;50.988;6.314;2023-02-17T11:44:55;3.83;;;3.43;;
3949;SDS011;53057;50.988;6.314;2023-02-17T11:50:22;3.37;;;3.07;;
3949;SDS011;53057;50.988;6.314;2023-02-17T11:53:12;6.67;;;4.63;;
3949;SDS011;53057;50.988;6.314;2023-02-17T12:00:53;5.93;;;3.43;;
3949;SDS011;53057;50.988;6.314;2023-02-17T12:03:30;6.50;;;3.20;;
3949;SDS011;53057;50.988;6.314;2023-02-17T12:08:51;5.30;;;3.70;;
3949;SDS011;53057;50.988;6.314;2023-02-17T12:11:29;9.97;;;3.93;;
3949;SDS011;53057;50.988;6.314;2023-02-17T12:14:11;6.63;;;3.90;;
3949;SDS011;53057;50.988;6.314;2023-02-17T12:16:54;2.83;;;2.57;;
3949;SDS011;53057;50.988;6.314;2023-02-17T12:19:38;7.50;;;3.47;;
3949;SDS011;53057;50.988;6.314;2023-02-17T12:22:52;6.17;;;4.27;;
3949;SDS011;53057;50.988;6.314;2023-02-17T12:25:18;5.40;;;3.90;;
3949;SDS011;53057;50.988;6.314;2023-02-17T12:32:56;6.37;;;3.80;;
3949;SDS011;53057;50.988;6.314;2023-02-17T12:35:31;3.80;;;2.90;;
3949;SDS011;53057;50.988;6.314;2023-02-17T12:38:00;4.03;;;3.63;;
3949;SDS011;53057;50.988;6.314;2023-02-17T12:40:46;4.93;;;3.33;;
3949;SDS011;53057;50.988;6.314;2023-02-17T12:45:43;2.57;;;2.37;;
3949;SDS011;53057;50.988;6.314;2023-02-17T12:48:46;5.13;;;3.20;;
3949;SDS011;53057;50.988;6.314;2023-02-17T12:58:51;3.93;;;2.67;;
3949;SDS011;53057;50.988;6.314;2023-02-17T13:01:20;4.83;;;2.27;;
3949;SDS011;53057;50.988;6.314;2023-02-17T13:03:47;4.20;;;3.80;;
3949;SDS011;53057;50.988;6.314;2023-02-17T13:08:45;6.40;;;3.13;;
3949;SDS011;53057;50.988;6.314;2023-02-17T13:11:25;5.73;;;3.30;;
3949;SDS011;53057;50.988;6.314;2023-02-17T13:13:52;7.30;;;2.80;;
3949;SDS011;53057;50.988;6.314;2023-02-17T13:16:18;7.57;;;2.80;;
3949;SDS011;53057;50.988;6.314;2023-02-17T13:18:46;3.63;;;2.80;;
3949;SDS011;53057;50.988;6.314;2023-02-17T13:23:43;4.07;;;3.07;;
3949;SDS011;53057;50.988;6.314;2023-02-17T13:28:48;7.30;;;2.93;;
3949;SDS011;53057;50.988;6.314;2023-02-17T13:31:16;3.13;;;2.63;;
3949;SDS011;53057;50.988;6.314;2023-02-17T13:33:48;9.40;;;3.13;;
3949;SDS011;53057;50.988;6.314;2023-02-17T13:36:16;6.03;;;2.90;;
3949;SDS011;53057;50.988;6.314;2023-02-17T13:38:53;12.47;;;4.77;;
3949;SDS011;53057;50.988;6.314;2023-02-17T13:41:21;3.00;;;2.80;;
3949;SDS011;53057;50.988;6.314;2023-02-17T13:43:48;5.50;;;3.70;;
3949;SDS011;53057;50.988;6.314;2023-02-17T13:46:17;5.10;;;2.57;;
3949;SDS011;53057;50.988;6.314;2023-02-17T13:48:45;3.07;;;2.50;;
3949;SDS011;53057;50.988;6.314;2023-02-17T13:51:24;6.60;;;2.90;;
3949;SDS011;53057;50.988;6.314;2023-02-17T13:53:50;7.10;;;3.10;;
3949;SDS011;53057;50.988;6.314;2023-02-17T13:56:27;5.73;;;3.23;;
3949;SDS011;53057;50.988;6.314;2023-02-17T13:59:05;5.97;;;3.67;;
3949;SDS011;53057;50.988;6.314;2023-02-17T14:01:34;5.97;;;3.00;;
3949;SDS011;53057;50.988;6.314;2023-02-17T14:04:01;3.73;;;3.30;;
3949;SDS011;53057;50.988;6.314;2023-02-17T14:06:30;3.73;;;3.00;;
3949;SDS011;53057;50.988;6.314;2023-02-17T14:08:57;7.00;;;3.57;;
3949;SDS011;53057;50.988;6.314;2023-02-17T14:11:25;4.93;;;4.43;;
3949;SDS011;53057;50.988;6.314;2023-02-17T14:13:55;4.60;;;3.33;;
3949;SDS011;53057;50.988;6.314;2023-02-17T14:16:36;11.30;;;5.20;;
3949;SDS011;53057;50.988;6.314;2023-02-17T14:19:04;8.13;;;3.67;;
3949;SDS011;53057;50.988;6.314;2023-02-17T14:21:32;4.97;;;3.17;;
3949;SDS011;53057;50.988;6.314;2023-02-17T14:23:58;9.00;;;3.80;;
3949;SDS011;53057;50.988;6.314;2023-02-17T14:26:27;7.50;;;3.50;;
3949;SDS011;53057;50.988;6.314;2023-02-17T14:28:55;5.20;;;4.70;;
3949;SDS011;53057;50.988;6.314;2023-02-17T14:31:22;5.70;;;3.63;;
3949;SDS011;53057;50.988;6.314;2023-02-17T14:33:57;6.70;;;4.13;;
3949;SDS011;53057;50.988;6.314;2023-02-17T14:36:28;6.17;;;4.40;;
3949;SDS011;53057;50.988;6.314;2023-02-17T14:38:55;4.80;;;3.60;;
3949;SDS011;53057;50.988;6.314;2023-02-17T14:41:22;4.57;;;3.63;;
3949;SDS011;53057;50.988;6.314;2023-02-17T14:43:49;4.10;;;2.70;;
3949;SDS011;53057;50.988;6.314;2023-02-17T14:46:16;7.80;;;2.97;;
3949;SDS011;53057;50.988;6.314;2023-02-17T14:48:48;2.93;;;2.00;;
3949;SDS011;53057;50.988;6.314;2023-02-17T14:51:36;3.40;;;3.07;;
3949;SDS011;53057;50.988;6.314;2023-02-17T14:54:14;8.20;;;4.30;;
3949;SDS011;53057;50.988;6.314;2023-02-17T14:57:15;2.53;;;2.33;;
3949;SDS011;53057;50.988;6.314;2023-02-17T14:59:34;3.47;;;1.70;;
3949;SDS011;53057;50.988;6.314;2023-02-17T15:02:01;3.97;;;2.83;;
3949;SDS011;53057;50.988;6.314;2023-02-17T15:04:27;3.83;;;1.57;;
3949;SDS011;53057;50.988;6.314;2023-02-17T15:06:54;2.00;;;1.50;;
3949;SDS011;53057;50.988;6.314;2023-02-17T15:09:23;4.50;;;2.37;;
3949;SDS011;53057;50.988;6.314;2023-02-17T15:11:53;5.30;;;1.90;;
3949;SDS011;53057;50.988;6.314;2023-02-17T15:14:21;1.77;;;1.67;;
3949;SDS011;53057;50.988;6.314;2023-02-17T15:16:47;2.20;;;1.70;;
3949;SDS011;53057;50.988;6.314;2023-02-17T15:19:14;6.60;;;1.90;;
3949;SDS011;53057;50.988;6.314;2023-02-17T15:21:45;1.67;;;1.57;;
3949;SDS011;53057;50.988;6.314;2023-02-17T15:24:13;3.40;;;2.40;;
3949;SDS011;53057;50.988;6.314;2023-02-17T15:26:40;2.03;;;1.93;;
3949;SDS011;53057;50.988;6.314;2023-02-17T15:29:15;3.80;;;2.57;;
3949;SDS011;53057;50.988;6.314;2023-02-17T15:31:42;2.20;;;1.67;;
3949;SDS011;53057;50.988;6.314;2023-02-17T15:34:11;1.70;;;1.60;;
3949;SDS011;53057;50.988;6.314;2023-02-17T15:36:38;3.87;;;2.30;;
3949;SDS011;53057;50.988;6.314;2023-02-17T15:39:07;5.10;;;2.43;;
3949;SDS011;53057;50.988;6.314;2023-02-17T15:41:34;4.17;;;2.07;;
3949;SDS011;53057;50.988;6.314;2023-02-17T15:44:00;2.50;;;2.17;;
3949;SDS011;53057;50.988;6.314;2023-02-17T15:46:29;5.93;;;2.60;;
3949;SDS011;53057;50.988;6.314;2023-02-17T15:48:57;3.40;;;3.20;;
3949;SDS011;53057;50.988;6.314;2023-02-17T15:51:23;5.33;;;2.23;;
3949;SDS011;53057;50.988;6.314;2023-02-17T15:53:50;3.93;;;2.53;;
3949;SDS011;53057;50.988;6.314;2023-02-17T15:56:19;4.00;;;2.67;;
3949;SDS011;53057;50.988;6.314;2023-02-17T15:58:46;3.90;;;3.20;;
3949;SDS011;53057;50.988;6.314;2023-02-17T16:03:50;6.73;;;4.47;;
3949;SDS011;53057;50.988;6.314;2023-02-17T16:06:16;5.57;;;4.50;;
3949;SDS011;53057;50.988;6.314;2023-02-17T16:08:43;3.27;;;2.97;;
3949;SDS011;53057;50.988;6.314;2023-02-17T16:11:14;9.30;;;8.10;;
3949;SDS011;53057;50.988;6.314;2023-02-17T16:13:42;8.03;;;2.80;;
3949;SDS011;53057;50.988;6.314;2023-02-17T16:16:14;2.97;;;2.77;;
3949;SDS011;53057;50.988;6.314;2023-02-17T16:18:41;4.93;;;2.80;;
3949;SDS011;53057;50.988;6.314;2023-02-17T16:21:11;5.83;;;3.30;;
3949;SDS011;53057;50.988;6.314;2023-02-17T16:23:38;3.20;;;2.97;;